sensor_id;sensor_type;location;lat;lon;timestamp;pressure;altitude;pressure_sealevel;temperature
43292;BMP280;28754;47.700;7.924;2022-12-29T00:00:31;91173.22;;;9.04
43292;BMP280;28754;47.700;7.924;2022-12-29T00:03:18;91176.31;;;9.06
43292;BMP280;28754;47.700;7.924;2022-12-29T00:06:05;91163.28;;;9.07
43292;BMP280;28754;47.700;7.924;2022-12-29T00:08:51;91177.59;;;9.08
43292;BMP280;28754;47.700;7.924;2022-12-29T00:11:39;91168.66;;;9.11
43292;BMP280;28754;47.700;7.924;2022-12-29T00:14:26;91172.50;;;9.13
43292;BMP280;28754;47.700;7.924;2022-12-29T00:17:31;91175.06;;;9.13
43292;BMP280;28754;47.700;7.924;2022-12-29T00:20:18;91159.72;;;9.13
43292;BMP280;28754;47.700;7.924;2022-12-29T00:23:24;91162.00;;;9.15
43292;BMP280;28754;47.700;7.924;2022-12-29T00:26:29;91170.94;;;9.17
43292;BMP280;28754;47.700;7.924;2022-12-29T00:29:34;91170.19;;;9.17
43292;BMP280;28754;47.700;7.924;2022-12-29T00:32:39;91155.63;;;9.17
43292;BMP280;28754;47.700;7.924;2022-12-29T00:36:02;91157.19;;;9.13
43292;BMP280;28754;47.700;7.924;2022-12-29T00:38:57;91159.22;;;9.16
43292;BMP280;28754;47.700;7.924;2022-12-29T00:42:08;91165.84;;;9.17
43292;BMP280;28754;47.700;7.924;2022-12-29T00:45:13;91164.84;;;9.18
43292;BMP280;28754;47.700;7.924;2022-12-29T00:48:00;91159.22;;;9.16
43292;BMP280;28754;47.700;7.924;2022-12-29T00:50:47;91158.47;;;9.16
43292;BMP280;28754;47.700;7.924;2022-12-29T00:53:34;91148.47;;;9.14
43292;BMP280;28754;47.700;7.924;2022-12-29T00:56:21;91156.91;;;9.15
43292;BMP280;28754;47.700;7.924;2022-12-29T00:59:10;91154.63;;;9.13
43292;BMP280;28754;47.700;7.924;2022-12-29T01:01:57;91147.44;;;9.15
43292;BMP280;28754;47.700;7.924;2022-12-29T01:04:44;91146.69;;;9.15
43292;BMP280;28754;47.700;7.924;2022-12-29T01:07:30;91149.75;;;9.17
43292;BMP280;28754;47.700;7.924;2022-12-29T01:10:17;91149.00;;;9.16
43292;BMP280;28754;47.700;7.924;2022-12-29T01:13:04;91138.25;;;9.14
43292;BMP280;28754;47.700;7.924;2022-12-29T01:15:52;91144.13;;;9.15
43292;BMP280;28754;47.700;7.924;2022-12-29T01:18:39;91134.69;;;9.15
43292;BMP280;28754;47.700;7.924;2022-12-29T01:21:26;91138.78;;;9.16
43292;BMP280;28754;47.700;7.924;2022-12-29T01:24:14;91139.31;;;9.13
43292;BMP280;28754;47.700;7.924;2022-12-29T01:27:01;91134.19;;;9.13
43292;BMP280;28754;47.700;7.924;2022-12-29T01:29:47;91136.22;;;9.11
43292;BMP280;28754;47.700;7.924;2022-12-29T01:32:34;91143.91;;;9.11
43292;BMP280;28754;47.700;7.924;2022-12-29T01:35:21;91150.53;;;9.12
43292;BMP280;28754;47.700;7.924;2022-12-29T01:38:07;91143.09;;;9.11
43292;BMP280;28754;47.700;7.924;2022-12-29T01:40:54;91145.66;;;9.11
43292;BMP280;28754;47.700;7.924;2022-12-29T01:46:39;91149.53;;;9.13
43292;BMP280;28754;47.700;7.924;2022-12-29T01:49:28;91155.38;;;9.14
43292;BMP280;28754;47.700;7.924;2022-12-29T01:52:15;91147.44;;;9.15
43292;BMP280;28754;47.700;7.924;2022-12-29T01:55:05;91149.50;;;9.18
43292;BMP280;28754;47.700;7.924;2022-12-29T01:57:54;91142.63;;;9.19
43292;BMP280;28754;47.700;7.924;2022-12-29T02:00:44;91144.91;;;9.20
43292;BMP280;28754;47.700;7.924;2022-12-29T02:03:31;91150.03;;;9.20
43292;BMP280;28754;47.700;7.924;2022-12-29T02:06:29;91143.88;;;9.21
43292;BMP280;28754;47.700;7.924;2022-12-29T02:09:18;91143.13;;;9.21
43292;BMP280;28754;47.700;7.924;2022-12-29T02:12:05;91140.56;;;9.21
43292;BMP280;28754;47.700;7.924;2022-12-29T02:14:58;91145.44;;;9.22
43292;BMP280;28754;47.700;7.924;2022-12-29T02:18:18;91139.28;;;9.23
43292;BMP280;28754;47.700;7.924;2022-12-29T02:34:41;91131.88;;;9.31
43292;BMP280;28754;47.700;7.924;2022-12-29T02:41:16;91122.44;;;9.32
43292;BMP280;28754;47.700;7.924;2022-12-29T02:47:38;91125.78;;;9.32
43292;BMP280;28754;47.700;7.924;2022-12-29T02:50:40;91109.16;;;9.30
43292;BMP280;28754;47.700;7.924;2022-12-29T02:53:32;91117.31;;;9.32
43292;BMP280;28754;47.700;7.924;2022-12-29T02:56:49;91120.91;;;9.31
43292;BMP280;28754;47.700;7.924;2022-12-29T02:59:37;91119.38;;;9.30
43292;BMP280;28754;47.700;7.924;2022-12-29T03:02:50;91120.16;;;9.30
43292;BMP280;28754;47.700;7.924;2022-12-29T03:09:35;91134.69;;;9.30
43292;BMP280;28754;47.700;7.924;2022-12-29T03:13:10;91117.84;;;9.29
43292;BMP280;28754;47.700;7.924;2022-12-29T03:16:35;91108.16;;;9.26
43292;BMP280;28754;47.700;7.924;2022-12-29T03:19:36;91111.94;;;9.23
43292;BMP280;28754;47.700;7.924;2022-12-29T03:22:29;91131.13;;;9.26
43292;BMP280;28754;47.700;7.924;2022-12-29T03:25:31;91126.03;;;9.26
43292;BMP280;28754;47.700;7.924;2022-12-29T03:28:33;91124.47;;;9.25
43292;BMP280;28754;47.700;7.924;2022-12-29T03:31:24;91115.53;;;9.27
43292;BMP280;28754;47.700;7.924;2022-12-29T03:34:14;91118.38;;;9.26
43292;BMP280;28754;47.700;7.924;2022-12-29T03:37:12;91121.94;;;9.25
43292;BMP280;28754;47.700;7.924;2022-12-29T03:39:59;91105.09;;;9.24
43292;BMP280;28754;47.700;7.924;2022-12-29T03:42:47;91120.66;;;9.23
43292;BMP280;28754;47.700;7.924;2022-12-29T03:45:34;91105.09;;;9.24
43292;BMP280;28754;47.700;7.924;2022-12-29T03:48:21;91089.75;;;9.24
43292;BMP280;28754;47.700;7.924;2022-12-29T03:51:09;91082.09;;;9.24
43292;BMP280;28754;47.700;7.924;2022-12-29T03:53:56;91096.38;;;9.25
43292;BMP280;28754;47.700;7.924;2022-12-29T03:56:43;91086.91;;;9.25
43292;BMP280;28754;47.700;7.924;2022-12-29T03:59:30;91086.91;;;9.25
43292;BMP280;28754;47.700;7.924;2022-12-29T04:02:17;91098.41;;;9.28
43292;BMP280;28754;47.700;7.924;2022-12-29T04:05:05;91093.31;;;9.28
43292;BMP280;28754;47.700;7.924;2022-12-29T04:07:52;91096.38;;;9.30
43292;BMP280;28754;47.700;7.924;2022-12-29T04:10:39;91096.13;;;9.31
43292;BMP280;28754;47.700;7.924;2022-12-29T04:13:27;91096.88;;;9.32
43292;BMP280;28754;47.700;7.924;2022-12-29T04:16:14;91096.88;;;9.32
43292;BMP280;28754;47.700;7.924;2022-12-29T04:19:02;91105.59;;;9.31
43292;BMP280;28754;47.700;7.924;2022-12-29T04:21:49;91097.41;;;9.29
43292;BMP280;28754;47.700;7.924;2022-12-29T04:24:36;91104.56;;;9.27
43292;BMP280;28754;47.700;7.924;2022-12-29T04:27:23;91099.97;;;9.29
43292;BMP280;28754;47.700;7.924;2022-12-29T04:30:46;91091.78;;;9.27
43292;BMP280;28754;47.700;7.924;2022-12-29T04:33:40;91098.16;;;9.29
43292;BMP280;28754;47.700;7.924;2022-12-29T04:36:27;91090.00;;;9.27
43292;BMP280;28754;47.700;7.924;2022-12-29T04:39:14;91093.06;;;9.29
43292;BMP280;28754;47.700;7.924;2022-12-29T04:42:01;91099.97;;;9.29
43292;BMP280;28754;47.700;7.924;2022-12-29T04:44:48;91092.28;;;9.29
43292;BMP280;28754;47.700;7.924;2022-12-29T04:47:51;91087.72;;;9.26
43292;BMP280;28754;47.700;7.924;2022-12-29T04:50:50;91091.28;;;9.25
43292;BMP280;28754;47.700;7.924;2022-12-29T04:53:39;91104.81;;;9.25
43292;BMP280;28754;47.700;7.924;2022-12-29T04:56:26;91099.47;;;9.22
43292;BMP280;28754;47.700;7.924;2022-12-29T04:59:12;91106.09;;;9.23
43292;BMP280;28754;47.700;7.924;2022-12-29T05:01:59;91100.97;;;9.23
43292;BMP280;28754;47.700;7.924;2022-12-29T05:04:46;91096.13;;;9.22
43292;BMP280;28754;47.700;7.924;2022-12-29T05:07:33;91100.47;;;9.21
43292;BMP280;28754;47.700;7.924;2022-12-29T05:10:20;91099.69;;;9.21
43292;BMP280;28754;47.700;7.924;2022-12-29T05:13:09;91093.56;;;9.22
43292;BMP280;28754;47.700;7.924;2022-12-29T05:15:56;91093.31;;;9.23
43292;BMP280;28754;47.700;7.924;2022-12-29T05:18:44;91092.31;;;9.24
43292;BMP280;28754;47.700;7.924;2022-12-29T05:21:30;91087.97;;;9.24
43292;BMP280;28754;47.700;7.924;2022-12-29T05:24:19;91084.38;;;9.25
43292;BMP280;28754;47.700;7.924;2022-12-29T05:27:06;91080.03;;;9.21
43292;BMP280;28754;47.700;7.924;2022-12-29T05:30:17;91088.97;;;9.23
43292;BMP280;28754;47.700;7.924;2022-12-29T05:33:04;91081.81;;;9.25
43292;BMP280;28754;47.700;7.924;2022-12-29T05:35:54;91076.69;;;9.25
43292;BMP280;28754;47.700;7.924;2022-12-29T05:38:42;91086.69;;;9.27
43292;BMP280;28754;47.700;7.924;2022-12-29T05:41:29;91085.16;;;9.26
43292;BMP280;28754;47.700;7.924;2022-12-29T05:44:35;91092.28;;;9.29
43292;BMP280;28754;47.700;7.924;2022-12-29T05:47:45;91079.78;;;9.27
43292;BMP280;28754;47.700;7.924;2022-12-29T05:50:50;91088.72;;;9.30
43292;BMP280;28754;47.700;7.924;2022-12-29T05:53:43;91095.38;;;9.31
43292;BMP280;28754;47.700;7.924;2022-12-29T05:56:30;91093.81;;;9.30
43292;BMP280;28754;47.700;7.924;2022-12-29T05:59:18;91097.41;;;9.29
43292;BMP280;28754;47.700;7.924;2022-12-29T06:02:09;91083.59;;;9.30
43292;BMP280;28754;47.700;7.924;2022-12-29T06:04:56;91089.75;;;9.29
43292;BMP280;28754;47.700;7.924;2022-12-29T06:07:43;91093.81;;;9.25
43292;BMP280;28754;47.700;7.924;2022-12-29T06:10:31;91093.31;;;9.23
43292;BMP280;28754;47.700;7.924;2022-12-29T06:13:23;91088.97;;;9.23
43292;BMP280;28754;47.700;7.924;2022-12-29T06:16:10;91093.31;;;9.23
43292;BMP280;28754;47.700;7.924;2022-12-29T06:18:59;91087.69;;;9.21
43292;BMP280;28754;47.700;7.924;2022-12-29T06:21:46;91095.09;;;9.23
43292;BMP280;28754;47.700;7.924;2022-12-29T06:24:32;91092.31;;;9.24
43292;BMP280;28754;47.700;7.924;2022-12-29T06:27:20;91090.25;;;9.26
43292;BMP280;28754;47.700;7.924;2022-12-29T06:30:09;91086.41;;;9.23
43292;BMP280;28754;47.700;7.924;2022-12-29T06:32:59;91084.66;;;9.24
43292;BMP280;28754;47.700;7.924;2022-12-29T06:35:46;91093.06;;;9.24
43292;BMP280;28754;47.700;7.924;2022-12-29T06:38:36;91083.59;;;9.25
43292;BMP280;28754;47.700;7.924;2022-12-29T06:41:22;91096.13;;;9.22
43292;BMP280;28754;47.700;7.924;2022-12-29T06:44:28;91074.16;;;9.21
43292;BMP280;28754;47.700;7.924;2022-12-29T06:47:21;91080.03;;;9.21
43292;BMP280;28754;47.700;7.924;2022-12-29T06:50:08;91086.69;;;9.22
43292;BMP280;28754;47.700;7.924;2022-12-29T06:52:55;91079.03;;;9.22
43292;BMP280;28754;47.700;7.924;2022-12-29T06:55:42;91083.38;;;9.26
43292;BMP280;28754;47.700;7.924;2022-12-29T06:58:29;91081.56;;;9.27
43292;BMP280;28754;47.700;7.924;2022-12-29T07:01:15;91079.00;;;9.27
43292;BMP280;28754;47.700;7.924;2022-12-29T07:04:03;91084.63;;;9.29
43292;BMP280;28754;47.700;7.924;2022-12-29T07:06:50;91085.16;;;9.31
43292;BMP280;28754;47.700;7.924;2022-12-29T07:09:37;91083.34;;;9.31
43292;BMP280;28754;47.700;7.924;2022-12-29T07:12:23;91076.97;;;9.29
43292;BMP280;28754;47.700;7.924;2022-12-29T07:15:11;91070.81;;;9.30
43292;BMP280;28754;47.700;7.924;2022-12-29T07:17:59;91078.50;;;9.30
43292;BMP280;28754;47.700;7.924;2022-12-29T07:20:45;91088.22;;;9.33
43292;BMP280;28754;47.700;7.924;2022-12-29T07:23:32;91093.84;;;9.35
43292;BMP280;28754;47.700;7.924;2022-12-29T07:26:19;91095.34;;;9.36
43292;BMP280;28754;47.700;7.924;2022-12-29T07:29:06;91098.66;;;9.36
43292;BMP280;28754;47.700;7.924;2022-12-29T07:31:53;91101.75;;;9.38
43292;BMP280;28754;47.700;7.924;2022-12-29T07:34:39;91100.97;;;9.38
43292;BMP280;28754;47.700;7.924;2022-12-29T07:37:26;91114.28;;;9.40
43292;BMP280;28754;47.700;7.924;2022-12-29T07:40:13;91109.91;;;9.40
43292;BMP280;28754;47.700;7.924;2022-12-29T07:43:00;91109.41;;;9.43
43292;BMP280;28754;47.700;7.924;2022-12-29T07:46:00;91114.25;;;9.45
43292;BMP280;28754;47.700;7.924;2022-12-29T07:48:48;91115.03;;;9.45
43292;BMP280;28754;47.700;7.924;2022-12-29T07:51:35;91123.47;;;9.46
43292;BMP280;28754;47.700;7.924;2022-12-29T07:54:22;91118.59;;;9.44
43292;BMP280;28754;47.700;7.924;2022-12-29T07:57:09;91122.97;;;9.44
43292;BMP280;28754;47.700;7.924;2022-12-29T07:59:56;91126.53;;;9.43
43292;BMP280;28754;47.700;7.924;2022-12-29T08:02:42;91128.06;;;9.44
43292;BMP280;28754;47.700;7.924;2022-12-29T08:05:31;91134.19;;;9.43
43292;BMP280;28754;47.700;7.924;2022-12-29T08:08:19;91122.44;;;9.42
43292;BMP280;28754;47.700;7.924;2022-12-29T08:11:06;91129.06;;;9.43
43292;BMP280;28754;47.700;7.924;2022-12-29T08:13:53;91132.41;;;9.38
43292;BMP280;28754;47.700;7.924;2022-12-29T08:16:40;91126.53;;;9.38
43292;BMP280;28754;47.700;7.924;2022-12-29T08:19:28;91132.41;;;9.38
43292;BMP280;28754;47.700;7.924;2022-12-29T08:22:15;91141.88;;;9.38
43292;BMP280;28754;47.700;7.924;2022-12-29T08:25:02;91133.69;;;9.36
43292;BMP280;28754;47.700;7.924;2022-12-29T08:27:49;91132.66;;;9.32
43292;BMP280;28754;47.700;7.924;2022-12-29T08:30:36;91126.53;;;9.33
43292;BMP280;28754;47.700;7.924;2022-12-29T08:33:25;91144.16;;;9.29
43292;BMP280;28754;47.700;7.924;2022-12-29T08:36:12;91147.97;;;9.32
43292;BMP280;28754;47.700;7.924;2022-12-29T08:38:59;91147.22;;;9.31
43292;BMP280;28754;47.700;7.924;2022-12-29T08:41:46;91142.13;;;9.31
43292;BMP280;28754;47.700;7.924;2022-12-29T08:44:33;91158.72;;;9.34
43292;BMP280;28754;47.700;7.924;2022-12-29T08:47:19;91159.75;;;9.33
43292;BMP280;28754;47.700;7.924;2022-12-29T08:50:07;91161.28;;;9.34
43292;BMP280;28754;47.700;7.924;2022-12-29T08:52:54;91153.88;;;9.32
43292;BMP280;28754;47.700;7.924;2022-12-29T08:55:43;91161.28;;;9.34
43292;BMP280;28754;47.700;7.924;2022-12-29T08:58:31;91154.63;;;9.33
43292;BMP280;28754;47.700;7.924;2022-12-29T09:01:19;91159.75;;;9.33
43292;BMP280;28754;47.700;7.924;2022-12-29T09:04:07;91156.16;;;9.34
43292;BMP280;28754;47.700;7.924;2022-12-29T09:06:54;91154.63;;;9.33
43292;BMP280;28754;47.700;7.924;2022-12-29T09:09:41;91157.72;;;9.35
43292;BMP280;28754;47.700;7.924;2022-12-29T09:15:10;91155.66;;;9.37
43292;BMP280;28754;47.700;7.924;2022-12-29T09:18:00;91161.53;;;9.37
43292;BMP280;28754;47.700;7.924;2022-12-29T09:20:47;91161.28;;;9.39
43292;BMP280;28754;47.700;7.924;2022-12-29T09:23:34;91160.78;;;9.42
43292;BMP280;28754;47.700;7.924;2022-12-29T09:26:21;91169.97;;;9.43
43292;BMP280;28754;47.700;7.924;2022-12-29T09:29:08;91154.38;;;9.44
43292;BMP280;28754;47.700;7.924;2022-12-29T09:31:54;91154.38;;;9.44
43292;BMP280;28754;47.700;7.924;2022-12-29T09:34:41;91157.69;;;9.45
43292;BMP280;28754;47.700;7.924;2022-12-29T09:37:28;91163.59;;;9.45
43292;BMP280;28754;47.700;7.924;2022-12-29T09:40:33;91173.03;;;9.45
43292;BMP280;28754;47.700;7.924;2022-12-29T09:46:45;91176.63;;;9.44
43292;BMP280;28754;47.700;7.924;2022-12-29T09:49:44;91162.81;;;9.45
43292;BMP280;28754;47.700;7.924;2022-12-29T09:52:46;91165.88;;;9.47
43292;BMP280;28754;47.700;7.924;2022-12-29T09:55:53;91165.13;;;9.46
43292;BMP280;28754;47.700;7.924;2022-12-29T09:58:52;91181.72;;;9.49
43292;BMP280;28754;47.700;7.924;2022-12-29T10:01:49;91167.91;;;9.45
43292;BMP280;28754;47.700;7.924;2022-12-29T10:04:40;91164.84;;;9.43
43292;BMP280;28754;47.700;7.924;2022-12-29T10:07:46;91175.59;;;9.45
43292;BMP280;28754;47.700;7.924;2022-12-29T10:14:03;91163.84;;;9.49
43292;BMP280;28754;47.700;7.924;2022-12-29T10:26:03;91175.59;;;9.55
43292;BMP280;28754;47.700;7.924;2022-12-29T10:29:04;91159.22;;;9.56
43292;BMP280;28754;47.700;7.924;2022-12-29T10:32:06;91149.28;;;9.54
43292;BMP280;28754;47.700;7.924;2022-12-29T10:35:03;91154.63;;;9.57
43292;BMP280;28754;47.700;7.924;2022-12-29T10:38:05;91153.63;;;9.58
43292;BMP280;28754;47.700;7.924;2022-12-29T10:41:19;91153.13;;;9.57
43292;BMP280;28754;47.700;7.924;2022-12-29T10:44:14;91150.78;;;9.60
43292;BMP280;28754;47.700;7.924;2022-12-29T10:47:25;91140.84;;;9.63
43292;BMP280;28754;47.700;7.924;2022-12-29T10:50:14;91154.88;;;9.66
43292;BMP280;28754;47.700;7.924;2022-12-29T10:53:05;91140.59;;;9.65
43292;BMP280;28754;47.700;7.924;2022-12-29T10:55:59;91139.03;;;9.64
43292;BMP280;28754;47.700;7.924;2022-12-29T10:58:49;91133.94;;;9.64
43292;BMP280;28754;47.700;7.924;2022-12-29T11:08:54;91123.44;;;9.65
43292;BMP280;28754;47.700;7.924;2022-12-29T11:11:50;91129.09;;;9.62
43292;BMP280;28754;47.700;7.924;2022-12-29T11:14:36;91129.34;;;9.61
43292;BMP280;28754;47.700;7.924;2022-12-29T11:17:24;91122.94;;;9.63
43292;BMP280;28754;47.700;7.924;2022-12-29T11:20:32;91121.94;;;9.64
43292;BMP280;28754;47.700;7.924;2022-12-29T11:23:37;91115.53;;;9.67
43292;BMP280;28754;47.700;7.924;2022-12-29T11:26:26;91120.38;;;9.68
43292;BMP280;28754;47.700;7.924;2022-12-29T11:29:16;91114.25;;;9.69
43292;BMP280;28754;47.700;7.924;2022-12-29T11:32:20;91116.81;;;9.64
43292;BMP280;28754;47.700;7.924;2022-12-29T11:38:33;91127.31;;;9.58
43292;BMP280;28754;47.700;7.924;2022-12-29T11:41:30;91122.97;;;9.58
43292;BMP280;28754;47.700;7.924;2022-12-29T11:44:17;91121.41;;;9.57
43292;BMP280;28754;47.700;7.924;2022-12-29T11:47:10;91125.50;;;9.58
43292;BMP280;28754;47.700;7.924;2022-12-29T11:50:03;91111.19;;;9.57
43292;BMP280;28754;47.700;7.924;2022-12-29T11:53:44;91125.00;;;9.57
43292;BMP280;28754;47.700;7.924;2022-12-29T11:56:54;91108.38;;;9.49
43292;BMP280;28754;47.700;7.924;2022-12-29T11:59:48;91114.78;;;9.47
43292;BMP280;28754;47.700;7.924;2022-12-29T12:02:57;91111.69;;;9.45
43292;BMP280;28754;47.700;7.924;2022-12-29T12:05:56;91110.19;;;9.44
43292;BMP280;28754;47.700;7.924;2022-12-29T12:08:57;91105.84;;;9.44
43292;BMP280;28754;47.700;7.924;2022-12-29T12:11:47;91093.31;;;9.48
43292;BMP280;28754;47.700;7.924;2022-12-29T12:14:48;91096.91;;;9.52
43292;BMP280;28754;47.700;7.924;2022-12-29T12:18:56;91094.56;;;9.60
43292;BMP280;28754;47.700;7.924;2022-12-29T12:39:26;91083.56;;;9.59
43292;BMP280;28754;47.700;7.924;2022-12-29T12:47:47;91068.72;;;9.66
43292;BMP280;28754;47.700;7.924;2022-12-29T12:51:03;91053.91;;;9.68
43292;BMP280;28754;47.700;7.924;2022-12-29T13:15:55;91049.34;;;9.60
43292;BMP280;28754;47.700;7.924;2022-12-29T13:19:41;91043.19;;;9.61
43292;BMP280;28754;47.700;7.924;2022-12-29T13:43:50;91054.72;;;9.44
43292;BMP280;28754;47.700;7.924;2022-12-29T13:46:49;91046.31;;;9.39
43292;BMP280;28754;47.700;7.924;2022-12-29T13:50:16;91049.63;;;9.34
43292;BMP280;28754;47.700;7.924;2022-12-29T13:54:05;91057.03;;;9.36
43292;BMP280;28754;47.700;7.924;2022-12-29T14:00:22;91055.00;;;9.33
43292;BMP280;28754;47.700;7.924;2022-12-29T14:06:25;91064.44;;;9.37
43292;BMP280;28754;47.700;7.924;2022-12-29T14:12:46;91056.28;;;9.35
43292;BMP280;28754;47.700;7.924;2022-12-29T14:21:00;91069.28;;;9.44
43292;BMP280;28754;47.700;7.924;2022-12-29T14:33:24;91069.78;;;9.41
43292;BMP280;28754;47.700;7.924;2022-12-29T14:36:52;91071.06;;;9.38
43292;BMP280;28754;47.700;7.924;2022-12-29T14:39:44;91064.94;;;9.34
43292;BMP280;28754;47.700;7.924;2022-12-29T14:42:32;91067.50;;;9.39
43292;BMP280;28754;47.700;7.924;2022-12-29T14:45:28;91067.75;;;9.38
43292;BMP280;28754;47.700;7.924;2022-12-29T14:48:34;91076.44;;;9.47
43292;BMP280;28754;47.700;7.924;2022-12-29T14:51:44;91070.59;;;9.41
43292;BMP280;28754;47.700;7.924;2022-12-29T14:57:59;91074.63;;;9.47
43292;BMP280;28754;47.700;7.924;2022-12-29T15:00:52;91068.78;;;9.47
43292;BMP280;28754;47.700;7.924;2022-12-29T15:04:48;91093.31;;;9.48
43292;BMP280;28754;47.700;7.924;2022-12-29T15:19:30;91086.16;;;9.35
43292;BMP280;28754;47.700;7.924;2022-12-29T15:23:02;91099.94;;;9.34
43292;BMP280;28754;47.700;7.924;2022-12-29T15:26:03;91083.59;;;9.30
43292;BMP280;28754;47.700;7.924;2022-12-29T15:33:37;91098.94;;;9.30
43292;BMP280;28754;47.700;7.924;2022-12-29T15:36:38;91070.84;;;9.25
43292;BMP280;28754;47.700;7.924;2022-12-29T15:46:36;91099.97;;;9.29
43292;BMP280;28754;47.700;7.924;2022-12-29T15:49:24;91093.06;;;9.29
43292;BMP280;28754;47.700;7.924;2022-12-29T15:52:21;91090.25;;;9.26
43292;BMP280;28754;47.700;7.924;2022-12-29T15:55:32;91086.16;;;9.25
43292;BMP280;28754;47.700;7.924;2022-12-29T15:58:29;91088.19;;;9.23
43292;BMP280;28754;47.700;7.924;2022-12-29T16:01:34;91088.72;;;9.20
43292;BMP280;28754;47.700;7.924;2022-12-29T16:04:25;91090.53;;;9.20
43292;BMP280;28754;47.700;7.924;2022-12-29T16:07:31;91091.78;;;9.17
43292;BMP280;28754;47.700;7.924;2022-12-29T16:10:40;91090.75;;;9.18
43292;BMP280;28754;47.700;7.924;2022-12-29T16:13:41;91091.78;;;9.22
43292;BMP280;28754;47.700;7.924;2022-12-29T16:16:36;91090.00;;;9.23
43292;BMP280;28754;47.700;7.924;2022-12-29T16:19:52;91095.63;;;9.24
43292;BMP280;28754;47.700;7.924;2022-12-29T16:22:59;91091.78;;;9.22
43292;BMP280;28754;47.700;7.924;2022-12-29T16:25:47;91084.09;;;9.17
43292;BMP280;28754;47.700;7.924;2022-12-29T16:28:40;91099.72;;;9.16
43292;BMP280;28754;47.700;7.924;2022-12-29T16:31:51;91089.75;;;9.14
43292;BMP280;28754;47.700;7.924;2022-12-29T16:34:46;91082.84;;;9.10
43292;BMP280;28754;47.700;7.924;2022-12-29T16:41:32;91099.44;;;9.07
43292;BMP280;28754;47.700;7.924;2022-12-29T16:45:04;91084.84;;;8.98
